Time;durP1;ratioP1;P1;durP2;ratioP2;P2;SDS_P1;SDS_P2;PMS_P1;PMS_P2;Temp;Humidity;BMP_temperature;BMP_pressure;BME280_temperature;BME280_humidity;BME280_pressure;Samples;Min_cycle;Max_cycle;Signal;HPM_P1;HPM_P2
2021/06/11 00:00:47;;;;;;;15.30;8.20;;;17.40;99.90;;;;;;4968817;28;20064;-69
2021/06/11 00:03:12;;;;;;;16.48;9.25;;;17.40;99.90;;;;;;4968760;28;20399;-69
2021/06/11 00:05:38;;;;;;;17.45;9.05;;;17.30;99.90;;;;;;4969085;28;20081;-69
2021/06/11 00:08:05;;;;;;;16.77;8.82;;;17.30;99.90;;;;;;4969183;28;20035;-68
2021/06/11 00:10:31;;;;;;;17.85;8.57;;;17.30;99.90;;;;;;4982695;28;20595;-69
2021/06/11 00:12:57;;;;;;;19.38;9.25;;;17.30;99.90;;;;;;4968833;28;20099;-68
2021/06/11 00:15:24;;;;;;;20.40;10.13;;;17.20;99.90;;;;;;4968770;28;20039;-69
2021/06/11 00:17:50;;;;;;;18.90;10.45;;;17.20;99.90;;;;;;4968790;28;20043;-68
2021/06/11 00:20:16;;;;;;;23.77;10.40;;;17.20;99.90;;;;;;4967276;28;20031;-70
2021/06/11 00:22:41;;;;;;;23.00;11.07;;;17.20;99.90;;;;;;4968107;28;20034;-69
2021/06/11 00:25:09;;;;;;;25.67;10.93;;;17.20;99.90;;;;;;4969081;28;20034;-69
2021/06/11 00:27:36;;;;;;;20.98;10.30;;;17.20;99.90;;;;;;4968511;28;20399;-69
2021/06/11 00:30:04;;;;;;;23.02;11.65;;;17.10;99.90;;;;;;4968499;28;20033;-68
2021/06/11 00:32:29;;;;;;;23.02;12.02;;;17.10;99.90;;;;;;4966858;28;20034;-69
2021/06/11 00:34:55;;;;;;;23.27;12.10;;;17.10;99.90;;;;;;4968384;28;20085;-68
2021/06/11 00:37:20;;;;;;;26.25;13.55;;;17.10;99.90;;;;;;4965904;28;20030;-69
2021/06/11 00:39:46;;;;;;;24.90;12.77;;;17.00;99.90;;;;;;4969149;28;20118;-68
2021/06/11 00:42:12;;;;;;;27.08;14.13;;;17.00;99.90;;;;;;4969023;28;20083;-68
2021/06/11 00:44:37;;;;;;;26.92;14.38;;;17.00;99.90;;;;;;4969542;28;20066;-69
2021/06/11 00:47:03;;;;;;;28.20;14.10;;;16.90;99.90;;;;;;4972657;28;20034;-69
2021/06/11 00:49:29;;;;;;;28.00;14.55;;;16.90;99.90;;;;;;4972881;28;20062;-69
2021/06/11 00:51:55;;;;;;;28.40;15.40;;;16.90;99.90;;;;;;4970979;28;20606;-69
2021/06/11 00:54:21;;;;;;;24.98;13.82;;;16.80;99.90;;;;;;4968483;28;20034;-70
2021/06/11 00:56:47;;;;;;;24.02;13.30;;;16.80;99.90;;;;;;4967757;28;20033;-69
2021/06/11 00:59:12;;;;;;;30.85;13.90;;;16.80;99.90;;;;;;4967912;28;20438;-69
2021/06/11 01:01:41;;;;;;;27.67;14.63;;;16.80;99.90;;;;;;4967161;28;20042;-69
2021/06/11 01:04:06;;;;;;;31.42;15.35;;;16.80;99.90;;;;;;4968179;28;20664;-68
2021/06/11 01:06:32;;;;;;;29.52;15.35;;;16.80;99.90;;;;;;4967394;28;20117;-69
2021/06/11 01:08:59;;;;;;;34.08;16.52;;;16.70;99.90;;;;;;4967958;28;20034;-69
2021/06/11 01:11:27;;;;;;;33.63;16.33;;;16.70;99.90;;;;;;4966935;28;20035;-71
2021/06/11 01:13:52;;;;;;;37.10;16.55;;;16.70;99.90;;;;;;4967596;28;20062;-68
2021/06/11 01:16:18;;;;;;;34.63;16.90;;;16.70;99.90;;;;;;4966513;28;20391;-69
2021/06/11 01:18:44;;;;;;;33.80;16.15;;;16.60;99.90;;;;;;4981979;28;20046;-69
2021/06/11 01:21:11;;;;;;;30.55;15.55;;;16.60;99.90;;;;;;4967239;28;20117;-69
2021/06/11 01:23:57;;;;;;;34.05;16.75;;;16.60;99.90;;;;;;4967243;28;20783;-69
2021/06/11 01:26:24;;;;;;;33.60;16.73;;;16.50;99.90;;;;;;4967595;28;20112;-69
2021/06/11 01:28:57;;;;;;;32.20;15.73;;;16.50;99.90;;;;;;4967161;28;20110;-69
2021/06/11 01:31:23;;;;;;;34.95;15.93;;;16.50;99.90;;;;;;4966795;28;20038;-69
2021/06/11 01:33:54;;;;;;;32.60;16.27;;;16.50;99.90;;;;;;4965460;28;20525;-69
2021/06/11 01:36:24;;;;;;;33.40;17.08;;;16.50;99.90;;;;;;4967970;28;20561;-68
2021/06/11 01:38:52;;;;;;;30.48;16.35;;;16.40;99.90;;;;;;4962656;28;20038;-69
2021/06/11 01:41:20;;;;;;;29.73;14.73;;;16.40;99.90;;;;;;4966820;28;20051;-68
2021/06/11 01:43:49;;;;;;;30.60;15.50;;;16.40;99.90;;;;;;4967274;28;20475;-69
2021/06/11 01:46:17;;;;;;;33.33;14.65;;;16.40;99.90;;;;;;4967093;28;20121;-69
2021/06/11 01:48:45;;;;;;;25.88;13.48;;;16.40;99.90;;;;;;4965475;28;20862;-69
2021/06/11 01:51:12;;;;;;;28.83;14.55;;;16.30;99.90;;;;;;4965637;28;20054;-69
2021/06/11 01:53:41;;;;;;;29.23;13.88;;;16.30;99.90;;;;;;4963917;28;20035;-69
2021/06/11 01:56:08;;;;;;;27.80;13.68;;;16.30;99.90;;;;;;4966037;28;20066;-69
2021/06/11 01:58:35;;;;;;;28.85;13.32;;;16.30;99.90;;;;;;4966379;28;20098;-73
2021/06/11 02:01:01;;;;;;;25.40;12.98;;;16.30;99.90;;;;;;4966890;28;20041;-69
2021/06/11 02:03:27;;;;;;;23.83;12.82;;;16.30;99.90;;;;;;4963375;28;20066;-69
2021/06/11 02:05:53;;;;;;;29.88;13.43;;;16.20;99.90;;;;;;4966380;28;20027;-69
2021/06/11 02:08:20;;;;;;;27.50;13.35;;;16.20;99.90;;;;;;4967243;28;20164;-69
2021/06/11 02:10:46;;;;;;;29.38;15.35;;;16.20;99.90;;;;;;4966221;28;20070;-68
2021/06/11 02:13:13;;;;;;;29.17;14.20;;;16.20;99.90;;;;;;4967222;28;20042;-69
2021/06/11 02:15:40;;;;;;;30.02;14.93;;;16.20;99.90;;;;;;4966809;28;20491;-70
2021/06/11 02:18:08;;;;;;;29.63;14.57;;;16.20;99.90;;;;;;4967675;28;20406;-69
2021/06/11 02:20:34;;;;;;;25.27;13.45;;;16.10;99.90;;;;;;4966828;28;20093;-67
2021/06/11 02:23:00;;;;;;;31.48;14.98;;;16.10;99.90;;;;;;4966852;28;20115;-69
2021/06/11 02:25:26;;;;;;;27.30;14.80;;;16.10;99.90;;;;;;4963297;28;20038;-69
2021/06/11 02:27:55;;;;;;;31.58;15.18;;;16.00;99.90;;;;;;4967018;28;20034;-67
2021/06/11 02:30:21;;;;;;;28.85;15.30;;;16.00;99.90;;;;;;4966516;28;20064;-67
2021/06/11 02:32:47;;;;;;;34.72;16.92;;;15.90;99.90;;;;;;4966575;28;20814;-68
2021/06/11 02:35:16;;;;;;;28.98;14.43;;;15.90;99.90;;;;;;4966952;28;20415;-67
2021/06/11 02:37:42;;;;;;;32.50;17.05;;;15.90;99.90;;;;;;4966115;28;20046;-70
2021/06/11 02:40:09;;;;;;;30.02;15.57;;;15.90;99.90;;;;;;4965510;28;20031;-69
2021/06/11 02:42:34;;;;;;;34.08;16.25;;;15.90;99.90;;;;;;4966702;28;20125;-67
2021/06/11 02:45:08;;;;;;;33.22;16.95;;;15.80;99.90;;;;;;4969114;28;20114;-67
2021/06/11 02:47:39;;;;;;;33.63;17.23;;;15.90;99.90;;;;;;4970667;28;20458;-67
2021/06/11 02:50:09;;;;;;;32.67;16.73;;;15.80;99.90;;;;;;4970493;28;20062;-69
2021/06/11 02:52:36;;;;;;;34.53;17.23;;;15.80;99.90;;;;;;4966180;28;20487;-67
2021/06/11 02:55:04;;;;;;;36.17;17.80;;;15.80;99.90;;;;;;4969751;28;20089;-67
2021/06/11 02:57:47;;;;;;;32.85;15.68;;;15.80;99.90;;;;;;4969787;28;20104;-68
2021/06/11 03:00:13;;;;;;;31.77;15.65;;;15.80;99.90;;;;;;4969971;28;20475;-69
2021/06/11 03:02:52;;;;;;;35.30;16.35;;;15.80;99.90;;;;;;4969903;28;20077;-69
2021/06/11 03:05:21;;;;;;;39.08;17.40;;;15.70;99.90;;;;;;4969477;28;20046;-69
2021/06/11 03:07:49;;;;;;;36.72;16.73;;;15.70;99.90;;;;;;4970369;28;20041;-69
2021/06/11 03:10:16;;;;;;;37.90;16.63;;;15.70;99.90;;;;;;4967883;28;20046;-70
2021/06/11 03:12:45;;;;;;;33.17;15.30;;;15.70;99.90;;;;;;4967737;28;20113;-69
2021/06/11 03:15:11;;;;;;;32.50;15.35;;;15.80;99.90;;;;;;4967888;28;20089;-70
2021/06/11 03:17:47;;;;;;;32.08;15.70;;;15.70;99.90;;;;;;4970093;28;20078;-69
2021/06/11 03:20:20;;;;;;;25.83;13.18;;;15.70;99.90;;;;;;4968831;28;20030;-69
2021/06/11 03:23:03;;;;;;;25.85;12.73;;;15.70;99.90;;;;;;4969518;28;20042;-69
2021/06/11 03:25:33;;;;;;;21.27;11.65;;;15.70;99.90;;;;;;4966149;28;20082;-69
2021/06/11 03:28:08;;;;;;;22.92;11.65;;;15.70;99.90;;;;;;4968592;28;20443;-69
2021/06/11 03:30:34;;;;;;;19.58;10.38;;;15.70;99.90;;;;;;4968436;28;20114;-69
2021/06/11 03:33:07;;;;;;;18.55;8.98;;;15.70;99.90;;;;;;4968508;28;20122;-69
2021/06/11 03:35:49;;;;;;;21.10;9.05;;;15.70;99.90;;;;;;4967362;28;20131;-69
2021/06/11 03:38:22;;;;;;;17.40;7.95;;;15.70;99.90;;;;;;4974294;28;20045;-68
2021/06/11 03:40:49;;;;;;;16.40;8.13;;;15.70;99.90;;;;;;4969357;28;20707;-68
2021/06/11 03:43:15;;;;;;;14.57;7.60;;;15.70;99.90;;;;;;4968857;28;20122;-68
2021/06/11 03:45:42;;;;;;;14.93;7.28;;;15.70;99.90;;;;;;4969595;28;20042;-68
2021/06/11 03:48:14;;;;;;;12.18;6.18;;;15.70;99.90;;;;;;4969445;28;20570;-68
2021/06/11 03:50:41;;;;;;;13.02;6.13;;;15.70;99.90;;;;;;4968729;28;20042;-68
2021/06/11 03:53:08;;;;;;;10.43;5.93;;;15.70;99.90;;;;;;4965531;28;20042;-68
2021/06/11 03:55:40;;;;;;;10.25;5.00;;;15.70;99.90;;;;;;4968536;28;20122;-68
2021/06/11 03:58:17;;;;;;;13.13;4.93;;;15.60;99.90;;;;;;4969457;28;20035;-67
2021/06/11 04:00:44;;;;;;;10.23;4.80;;;15.70;99.90;;;;;;4968644;28;20473;-68
2021/06/11 04:03:10;;;;;;;10.18;5.00;;;15.70;99.90;;;;;;4969117;28;20038;-68
2021/06/11 04:05:36;;;;;;;11.82;5.30;;;15.70;99.90;;;;;;4968623;28;20038;-68
2021/06/11 04:08:06;;;;;;;8.80;4.22;;;15.70;99.90;;;;;;4969244;28;20051;-68
2021/06/11 04:10:39;;;;;;;13.07;5.40;;;15.80;99.90;;;;;;4967443;28;20050;-68
2021/06/11 04:13:16;;;;;;;14.40;5.05;;;15.70;99.90;;;;;;4969566;28;20030;-68
2021/06/11 04:15:43;;;;;;;13.18;5.15;;;15.70;99.90;;;;;;4969101;28;20048;-68
2021/06/11 04:18:11;;;;;;;12.13;6.45;;;15.70;99.90;;;;;;4969125;28;20105;-68
2021/06/11 04:20:40;;;;;;;13.30;6.07;;;15.70;99.90;;;;;;4967796;28;20053;-68
2021/06/11 04:23:08;;;;;;;14.30;6.05;;;15.70;99.90;;;;;;4968885;28;20117;-68
2021/06/11 04:25:35;;;;;;;16.38;6.97;;;15.80;99.90;;;;;;4968332;28;20049;-68
2021/06/11 04:28:04;;;;;;;19.10;7.53;;;15.80;99.90;;;;;;4967492;28;20031;-67
2021/06/11 04:30:30;;;;;;;19.38;7.95;;;15.80;99.90;;;;;;4967703;28;20483;-68
2021/06/11 04:32:55;;;;;;;15.57;7.93;;;15.80;99.90;;;;;;4970614;28;20066;-67
2021/06/11 04:35:24;;;;;;;22.70;8.98;;;15.90;99.90;;;;;;4967372;28;20547;-68
2021/06/11 04:37:49;;;;;;;21.10;8.85;;;16.00;99.90;;;;;;4960378;28;20082;-68
2021/06/11 04:40:15;;;;;;;26.20;10.13;;;16.00;99.90;;;;;;4968074;28;20483;-68
2021/06/11 04:42:41;;;;;;;20.15;8.90;;;16.00;99.90;;;;;;4967346;28;20065;-68
2021/06/11 04:45:08;;;;;;;23.25;9.40;;;16.00;99.90;;;;;;4968516;28;20031;-68
2021/06/11 04:47:33;;;;;;;26.20;10.10;;;16.10;99.90;;;;;;4967838;28;20488;-68
2021/06/11 04:49:59;;;;;;;29.02;10.90;;;16.10;99.90;;;;;;4968486;28;20037;-68
2021/06/11 04:52:24;;;;;;;27.10;10.73;;;16.20;99.90;;;;;;4963606;28;20031;-68
2021/06/11 04:54:50;;;;;;;34.50;12.18;;;16.20;99.90;;;;;;4967578;28;20142;-68
2021/06/11 04:57:16;;;;;;;37.38;13.93;;;16.30;99.90;;;;;;4968051;28;20121;-68
2021/06/11 04:59:41;;;;;;;39.13;13.68;;;16.30;99.90;;;;;;4967702;28;20549;-68
2021/06/11 05:02:07;;;;;;;31.30;12.63;;;16.40;99.90;;;;;;4967711;28;20082;-68
2021/06/11 05:04:32;;;;;;;38.65;13.80;;;16.50;99.90;;;;;;4966100;28;20101;-69
2021/06/11 05:06:59;;;;;;;35.17;12.98;;;16.60;99.90;;;;;;4967617;28;20035;-68
2021/06/11 05:09:25;;;;;;;35.05;13.70;;;16.70;99.90;;;;;;4966514;28;20042;-68
2021/06/11 05:11:51;;;;;;;25.58;11.35;;;16.80;99.90;;;;;;4965733;28;20585;-69
2021/06/11 05:14:16;;;;;;;22.30;10.35;;;16.80;99.90;;;;;;4968150;28;20053;-67
2021/06/11 05:16:42;;;;;;;22.67;10.35;;;16.80;99.90;;;;;;4967584;28;20503;-68
2021/06/11 05:19:07;;;;;;;22.15;9.82;;;16.80;99.90;;;;;;4967926;28;20042;-68
2021/06/11 05:21:33;;;;;;;22.10;10.27;;;16.90;99.90;;;;;;4967662;28;20041;-68
2021/06/11 05:23:59;;;;;;;19.77;10.13;;;16.90;99.90;;;;;;4967734;28;20070;-68
2021/06/11 05:26:24;;;;;;;20.65;10.80;;;16.90;99.90;;;;;;4967988;28;20039;-68
2021/06/11 05:28:50;;;;;;;17.48;8.68;;;16.90;99.90;;;;;;4967576;28;20034;-68
2021/06/11 05:31:15;;;;;;;20.02;8.80;;;17.00;99.90;;;;;;4981795;28;20498;-68
2021/06/11 05:33:41;;;;;;;18.50;8.98;;;17.00;99.90;;;;;;4966445;28;20395;-69
2021/06/11 05:36:07;;;;;;;18.55;8.68;;;17.10;99.90;;;;;;4967951;28;20034;-68
2021/06/11 05:38:32;;;;;;;19.42;8.93;;;17.20;99.90;;;;;;4966160;28;20027;-68
2021/06/11 05:41:00;;;;;;;18.05;8.20;;;17.40;99.90;;;;;;4965769;28;20047;-68
2021/06/11 05:43:25;;;;;;;18.15;9.35;;;17.40;99.90;;;;;;4966785;28;20027;-68
2021/06/11 05:45:51;;;;;;;18.90;9.20;;;17.50;99.90;;;;;;4966819;28;20487;-68
2021/06/11 05:48:17;;;;;;;21.40;9.60;;;17.50;99.90;;;;;;4967273;28;20403;-69
2021/06/11 05:50:42;;;;;;;17.63;9.05;;;17.50;99.90;;;;;;4964365;28;20031;-68
2021/06/11 05:53:09;;;;;;;14.57;8.68;;;17.70;99.90;;;;;;4966147;28;20100;-69
2021/06/11 05:55:35;;;;;;;21.98;10.63;;;17.70;99.90;;;;;;4966952;28;20496;-69
2021/06/11 05:58:01;;;;;;;22.73;10.80;;;17.80;99.90;;;;;;4966588;28;20545;-70
2021/06/11 06:00:26;;;;;;;20.95;10.38;;;17.90;99.90;;;;;;4966795;28;20027;-70
2021/06/11 06:02:52;;;;;;;23.00;11.43;;;17.90;99.90;;;;;;4966724;28;20138;-71
2021/06/11 06:05:18;;;;;;;24.00;11.50;;;18.00;99.90;;;;;;4966988;28;20062;-70
2021/06/11 06:07:44;;;;;;;23.63;11.30;;;18.10;99.90;;;;;;4967279;28;20514;-70
2021/06/11 06:10:10;;;;;;;21.05;11.38;;;18.10;99.90;;;;;;4966310;28;20031;-68
2021/06/11 06:12:36;;;;;;;24.00;11.30;;;18.20;99.90;;;;;;4965485;28;20035;-69
2021/06/11 06:15:03;;;;;;;20.40;11.05;;;18.20;99.90;;;;;;4967246;28;20043;-69
2021/06/11 06:17:34;;;;;;;22.08;11.23;;;18.30;99.90;;;;;;4967564;28;20050;-69
2021/06/11 06:20:00;;;;;;;23.30;12.10;;;18.30;99.90;;;;;;4962975;28;20023;-69
2021/06/11 06:22:26;;;;;;;21.50;11.52;;;18.40;99.90;;;;;;4962953;28;20093;-68
2021/06/11 06:24:51;;;;;;;22.23;10.93;;;18.40;99.90;;;;;;4970613;28;20050;-69
2021/06/11 06:27:17;;;;;;;21.02;11.93;;;18.40;99.90;;;;;;4966912;28;20066;-68
2021/06/11 06:29:42;;;;;;;22.77;11.63;;;18.40;99.90;;;;;;4970252;28;20558;-68
2021/06/11 06:32:08;;;;;;;20.02;11.13;;;18.40;99.90;;;;;;4966595;28;20470;-68
2021/06/11 06:34:34;;;;;;;30.25;13.10;;;18.40;99.90;;;;;;4971591;28;20038;-70
2021/06/11 06:36:59;;;;;;;28.63;13.25;;;18.30;99.90;;;;;;4968291;28;20383;-71
2021/06/11 06:39:26;;;;;;;29.10;13.70;;;18.30;99.90;;;;;;4962662;28;20109;-70
2021/06/11 06:41:52;;;;;;;25.17;12.65;;;18.30;99.90;;;;;;4971515;28;20256;-70
2021/06/11 06:44:17;;;;;;;27.48;13.27;;;18.40;99.90;;;;;;4972660;28;20050;-70
2021/06/11 06:46:43;;;;;;;24.83;12.27;;;18.50;99.90;;;;;;4973781;28;20046;-70
2021/06/11 06:49:09;;;;;;;27.17;12.77;;;18.50;99.90;;;;;;4971603;28;20039;-70
2021/06/11 06:51:36;;;;;;;29.27;14.43;;;18.60;99.90;;;;;;4969449;28;20161;-70
2021/06/11 06:54:02;;;;;;;28.23;14.50;;;18.70;99.90;;;;;;4973974;28;20403;-69
2021/06/11 06:56:29;;;;;;;30.67;14.20;;;18.80;99.90;;;;;;4971189;28;20043;-69
2021/06/11 06:58:55;;;;;;;28.67;13.80;;;18.80;99.90;;;;;;4967271;28;20071;-69
2021/06/11 07:01:24;;;;;;;29.20;14.60;;;19.00;99.90;;;;;;4966058;28;20100;-69
2021/06/11 07:03:50;;;;;;;27.30;14.40;;;19.10;99.90;;;;;;4968898;28;20129;-68
2021/06/11 07:06:16;;;;;;;30.50;14.80;;;19.20;99.90;;;;;;4981081;28;20113;-69
2021/06/11 07:08:41;;;;;;;31.70;14.40;;;19.30;99.90;;;;;;4967605;28;20035;-69
2021/06/11 07:11:07;;;;;;;37.47;16.80;;;19.30;99.90;;;;;;4972497;28;20057;-70
2021/06/11 07:13:33;;;;;;;31.75;15.60;;;19.20;99.90;;;;;;4970590;28;20034;-71
2021/06/11 07:15:59;;;;;;;36.10;17.63;;;19.30;99.90;;;;;;4970170;28;20059;-71
2021/06/11 07:18:25;;;;;;;36.88;18.33;;;19.30;99.90;;;;;;4981532;28;20035;-70
2021/06/11 07:20:51;;;;;;;35.50;18.52;;;19.30;99.90;;;;;;4974605;28;20118;-71
2021/06/11 07:23:16;;;;;;;38.65;17.95;;;19.30;99.90;;;;;;4974009;28;20113;-70
2021/06/11 07:25:42;;;;;;;36.20;16.83;;;19.40;99.90;;;;;;4976330;28;20031;-70
2021/06/11 07:28:07;;;;;;;41.15;19.00;;;19.50;99.90;;;;;;4974147;28;20114;-69
2021/06/11 07:30:33;;;;;;;36.38;18.52;;;19.50;99.90;;;;;;4970634;28;20070;-70
2021/06/11 07:32:59;;;;;;;39.05;19.05;;;19.60;99.90;;;;;;4967548;28;20039;-70
2021/06/11 07:35:24;;;;;;;38.88;18.77;;;19.70;99.90;;;;;;4967354;28;20027;-70
2021/06/11 07:37:50;;;;;;;41.17;20.88;;;19.80;99.90;;;;;;4965612;28;20117;-69
2021/06/11 07:40:16;;;;;;;48.10;22.38;;;19.90;99.90;;;;;;4966750;28;20131;-70
2021/06/11 07:42:41;;;;;;;45.38;21.52;;;19.80;99.90;;;;;;4970338;28;20438;-69
2021/06/11 07:45:08;;;;;;;44.13;22.50;;;19.80;99.90;;;;;;4966934;28;20491;-70
2021/06/11 07:47:35;;;;;;;44.03;21.88;;;19.80;99.90;;;;;;4970724;28;20026;-70
2021/06/11 07:50:00;;;;;;;43.88;23.58;;;19.90;99.90;;;;;;4970487;28;20745;-69
2021/06/11 07:52:26;;;;;;;46.88;21.38;;;20.00;99.90;;;;;;4968287;28;20034;-70
2021/06/11 07:54:52;;;;;;;44.35;21.33;;;20.20;99.90;;;;;;4969908;28;20045;-70
2021/06/11 07:57:17;;;;;;;42.67;21.98;;;20.30;99.90;;;;;;4969724;28;20064;-70
2021/06/11 07:59:43;;;;;;;43.53;21.30;;;20.40;99.90;;;;;;4969713;28;20039;-69
2021/06/11 08:02:10;;;;;;;41.72;21.13;;;20.50;99.90;;;;;;4967933;28;20043;-70
2021/06/11 08:04:36;;;;;;;41.78;21.33;;;20.50;99.90;;;;;;4965510;28;20514;-70
2021/06/11 08:07:02;;;;;;;39.70;21.30;;;20.50;99.90;;;;;;4969247;28;20038;-69
2021/06/11 08:09:29;;;;;;;41.10;21.50;;;20.50;99.90;;;;;;4969386;28;20588;-70
2021/06/11 08:11:55;;;;;;;44.92;22.02;;;20.50;99.90;;;;;;4969461;28;20666;-70
2021/06/11 08:14:21;;;;;;;41.13;22.17;;;20.50;99.90;;;;;;4968801;28;20046;-70
2021/06/11 08:16:47;;;;;;;44.47;21.67;;;20.60;99.90;;;;;;4969448;28;20471;-70
2021/06/11 08:19:12;;;;;;;38.28;20.80;;;20.70;99.90;;;;;;4968679;28;20089;-70
2021/06/11 08:21:38;;;;;;;37.42;20.48;;;20.60;99.90;;;;;;4968478;28;20507;-70
2021/06/11 08:24:03;;;;;;;35.75;19.80;;;20.70;99.90;;;;;;4968910;28;20043;-71
2021/06/11 08:26:29;;;;;;;39.28;21.23;;;21.00;99.90;;;;;;4967607;28;20096;-71
2021/06/11 08:28:55;;;;;;;44.08;22.08;;;21.10;99.90;;;;;;4960173;28;20472;-71
2021/06/11 08:31:20;;;;;;;37.65;20.45;;;21.30;99.90;;;;;;4956766;28;20038;-71
2021/06/11 08:33:47;;;;;;;40.00;21.65;;;21.50;99.90;;;;;;4965087;28;20042;-70
2021/06/11 08:36:13;;;;;;;36.30;21.13;;;21.80;99.90;;;;;;4961780;28;20403;-70
2021/06/11 08:38:39;;;;;;;35.42;21.08;;;21.90;99.90;;;;;;4966176;28;20662;-70
2021/06/11 08:41:09;;;;;;;38.28;22.05;;;21.90;99.90;;;;;;4961547;28;20046;-70
2021/06/11 08:43:34;;;;;;;38.72;22.67;;;22.00;99.90;;;;;;4962172;28;20392;-70
2021/06/11 08:46:01;;;;;;;35.85;22.23;;;22.00;99.90;;;;;;4961414;28;20023;-70
2021/06/11 08:48:26;;;;;;;36.10;21.40;;;22.10;99.90;;;;;;4961822;28;20031;-70
2021/06/11 08:50:52;;;;;;;35.53;20.83;;;22.10;99.90;;;;;;4959443;28;20042;-69
2021/06/11 08:53:18;;;;;;;31.73;18.15;;;22.30;99.90;;;;;;4964806;28;20407;-69
2021/06/11 08:55:46;;;;;;;26.90;15.35;;;22.70;99.90;;;;;;4964620;28;20064;-69
2021/06/11 08:58:12;;;;;;;27.05;15.88;;;23.10;99.90;;;;;;4959870;28;20034;-68
2021/06/11 09:00:38;;;;;;;21.77;13.05;;;23.30;99.90;;;;;;4963425;28;20174;-67
2021/06/11 09:03:11;;;;;;;21.58;13.52;;;23.30;99.90;;;;;;4963031;28;20110;-68
2021/06/11 09:05:39;;;;;;;19.92;12.48;;;23.10;99.90;;;;;;4965025;28;20385;-69
2021/06/11 09:08:21;;;;;;;20.88;12.40;;;23.00;99.90;;;;;;4965806;28;20581;-70
2021/06/11 09:10:52;;;;;;;23.60;12.68;;;22.90;99.90;;;;;;4963872;28;20428;-68
2021/06/11 09:13:28;;;;;;;26.90;11.88;;;23.00;99.90;;;;;;4965049;28;20034;-69
2021/06/11 09:16:07;;;;;;;31.42;12.13;;;23.20;99.90;;;;;;4965926;28;20042;-69
2021/06/11 09:19:02;;;;;;;17.77;11.32;;;23.20;99.90;;;;;;4960434;28;20452;-69
2021/06/11 09:21:42;;;;;;;21.33;11.30;;;23.40;99.90;;;;;;4957316;28;20039;-68
2021/06/11 09:27:08;;;;;;;19.67;10.32;;;23.60;99.90;;;;;;4964949;28;19918;-71
2021/06/11 09:29:38;;;;;;;17.17;10.60;;;23.70;99.90;;;;;;4964765;28;20039;-70
2021/06/11 09:32:30;;;;;;;18.75;11.25;;;23.60;99.90;;;;;;4958691;28;20030;-70
2021/06/11 09:35:03;;;;;;;21.92;11.38;;;23.90;99.90;;;;;;4971080;28;20039;-70
2021/06/11 09:37:31;;;;;;;15.70;9.77;;;24.10;99.90;;;;;;4965694;28;20063;-70
2021/06/11 09:40:07;;;;;;;18.30;10.30;;;24.50;99.90;;;;;;4965397;28;20507;-70
2021/06/11 09:42:37;;;;;;;14.35;8.65;;;24.60;99.90;;;;;;4965007;28;20518;-70
2021/06/11 09:45:04;;;;;;;14.57;8.38;;;24.70;99.90;;;;;;4962616;28;20122;-70
2021/06/11 09:47:32;;;;;;;11.68;8.02;;;24.70;99.90;;;;;;4964891;28;20047;-70
2021/06/11 09:50:05;;;;;;;14.55;9.10;;;24.70;99.90;;;;;;4962064;28;20035;-70
2021/06/11 09:52:35;;;;;;;15.23;8.13;;;24.50;99.90;;;;;;4958701;28;20495;-70
2021/06/11 09:55:04;;;;;;;10.40;7.20;;;24.20;99.90;;;;;;4959346;28;20039;-70
2021/06/11 09:57:33;;;;;;;9.53;6.73;;;24.10;99.90;;;;;;4964304;28;20034;-71
2021/06/11 10:00:00;;;;;;;10.93;6.77;;;24.10;99.90;;;;;;4961330;28;20101;-70
2021/06/11 10:02:29;;;;;;;10.98;7.15;;;24.10;99.90;;;;;;4961237;28;20042;-70
2021/06/11 10:04:55;;;;;;;11.48;7.65;;;24.20;99.90;;;;;;4961480;28;20035;-70
2021/06/11 10:07:21;;;;;;;11.23;7.38;;;24.40;99.90;;;;;;4963276;28;20093;-70
2021/06/11 10:09:47;;;;;;;12.63;8.05;;;24.40;99.90;;;;;;4961028;28;20453;-70
2021/06/11 10:12:13;;;;;;;11.27;7.05;;;24.40;99.90;;;;;;4961757;28;20124;-70
2021/06/11 10:14:39;;;;;;;10.65;7.53;;;24.50;99.90;;;;;;4958898;28;20054;-70
2021/06/11 10:17:06;;;;;;;14.48;8.68;;;24.60;99.90;;;;;;4961823;28;20034;-70
2021/06/11 10:19:31;;;;;;;11.07;7.82;;;24.90;99.90;;;;;;4963298;28;20027;-69
2021/06/11 10:21:57;;;;;;;15.13;10.30;;;25.10;99.90;;;;;;4954225;28;20038;-70
2021/06/11 10:24:23;;;;;;;14.70;9.40;;;25.60;99.90;;;;;;4962703;28;20868;-70
2021/06/11 10:26:50;;;;;;;15.13;8.38;;;25.70;99.90;;;;;;4957681;28;20110;-68
2021/06/11 10:29:18;;;;;;;12.60;8.93;;;26.00;99.90;;;;;;4955555;28;20150;-69
2021/06/11 10:31:44;;;;;;;13.18;8.02;;;26.10;99.90;;;;;;4962463;28;20070;-69
2021/06/11 10:34:10;;;;;;;11.13;6.43;;;26.20;99.90;;;;;;4961489;28;20038;-69
2021/06/11 10:36:44;;;;;;;11.98;7.78;;;26.20;99.90;;;;;;4961064;28;20054;-68
2021/06/11 10:39:09;;;;;;;13.18;8.20;;;26.20;99.90;;;;;;4956375;28;20043;-69
2021/06/11 10:42:08;;;;;;;13.05;8.98;;;26.20;99.90;;;;;;4962762;28;20057;-70
2021/06/11 10:44:52;;;;;;;16.17;9.27;;;26.10;99.90;;;;;;4961877;28;20109;-69
2021/06/11 10:47:17;;;;;;;14.52;8.95;;;26.10;99.90;;;;;;4955670;28;20134;-69
2021/06/11 10:49:58;;;;;;;13.50;8.35;;;26.40;99.90;;;;;;4961599;28;20176;-69
2021/06/11 10:52:50;;;;;;;12.20;8.63;;;26.70;99.90;;;;;;4964875;28;21000;-68
2021/06/11 10:55:18;;;;;;;13.13;8.07;;;26.90;99.90;;;;;;4960896;28;20023;-70
2021/06/11 10:58:06;;;;;;;15.25;7.68;;;26.90;99.90;;;;;;4959745;28;20463;-67
2021/06/11 11:00:32;;;;;;;12.25;7.57;;;26.90;99.90;;;;;;4965865;28;20041;-69
2021/06/11 11:03:01;;;;;;;10.60;7.35;;;26.60;99.90;;;;;;4962681;28;20027;-66
2021/06/11 11:05:34;;;;;;;10.13;7.13;;;26.60;99.90;;;;;;4964695;28;20031;-70
2021/06/11 11:08:07;;;;;;;13.00;7.18;;;26.60;99.90;;;;;;4965170;28;20501;-69
2021/06/11 11:10:43;;;;;;;8.77;6.43;;;26.60;99.90;;;;;;4965617;28;20159;-70
2021/06/11 11:13:16;;;;;;;11.10;7.03;;;26.30;99.90;;;;;;4968323;28;20042;-67
2021/06/11 11:15:52;;;;;;;13.80;7.45;;;26.20;99.90;;;;;;4967928;28;20042;-68
2021/06/11 11:18:26;;;;;;;8.75;5.93;;;26.10;99.90;;;;;;4966242;28;20026;-71
2021/06/11 11:20:52;;;;;;;11.00;6.78;;;25.90;99.90;;;;;;4970123;28;20038;-70
2021/06/11 11:23:24;;;;;;;10.48;6.85;;;25.80;99.90;;;;;;4965011;28;20042;-69
2021/06/11 11:25:50;;;;;;;13.02;6.38;;;25.80;99.90;;;;;;4979530;28;20065;-69
2021/06/11 11:28:17;;;;;;;12.10;6.70;;;25.90;99.90;;;;;;4967809;28;20516;-70
2021/06/11 11:30:46;;;;;;;10.27;7.10;;;25.90;99.90;;;;;;4967255;28;20431;-68
2021/06/11 11:33:12;;;;;;;10.60;7.15;;;26.00;99.90;;;;;;4969082;28;20118;-68
2021/06/11 11:35:44;;;;;;;14.48;7.40;;;26.00;99.90;;;;;;4968583;28;20190;-67
2021/06/11 11:38:12;;;;;;;14.07;8.93;;;26.10;99.90;;;;;;4966102;28;20098;-69
2021/06/11 11:40:38;;;;;;;12.65;8.75;;;26.00;99.90;;;;;;4969605;28;20035;-68
2021/06/11 11:43:04;;;;;;;13.20;7.88;;;25.80;99.90;;;;;;4969931;28;20495;-68
2021/06/11 11:45:31;;;;;;;16.20;10.82;;;25.60;99.90;;;;;;4969399;28;20027;-68
2021/06/11 11:47:59;;;;;;;16.52;11.32;;;25.60;99.90;;;;;;4966375;28;20038;-69
2021/06/11 11:50:27;;;;;;;16.73;12.20;;;25.40;99.90;;;;;;4968847;28;20035;-70
2021/06/11 11:52:56;;;;;;;17.75;12.45;;;25.30;99.90;;;;;;4962303;28;20106;-69
2021/06/11 11:55:23;;;;;;;18.20;11.77;;;25.40;99.90;;;;;;4962598;28;20062;-70
2021/06/11 11:57:48;;;;;;;17.00;11.45;;;25.50;99.90;;;;;;4968410;28;20523;-68
2021/06/11 12:00:15;;;;;;;19.38;12.32;;;25.60;99.90;;;;;;4969414;28;20030;-70
2021/06/11 12:02:42;;;;;;;14.32;10.85;;;25.80;99.90;;;;;;4966971;28;20664;-69
2021/06/11 12:05:09;;;;;;;15.68;10.45;;;25.90;99.90;;;;;;4963035;28;20097;-68
2021/06/11 12:07:35;;;;;;;14.82;9.63;;;26.20;99.90;;;;;;4966622;28;20038;-69
2021/06/11 12:10:01;;;;;;;17.67;11.38;;;26.30;99.90;;;;;;4983962;28;20035;-70
2021/06/11 12:12:26;;;;;;;15.50;11.13;;;26.40;99.90;;;;;;4962047;28;20041;-68
2021/06/11 12:14:53;;;;;;;14.45;10.70;;;26.40;99.90;;;;;;4969527;28;20039;-69
2021/06/11 12:17:18;;;;;;;18.08;11.07;;;26.40;99.90;;;;;;4969380;28;20288;-69
2021/06/11 12:19:44;;;;;;;18.40;11.73;;;26.30;99.90;;;;;;4967961;28;20046;-69
2021/06/11 12:22:10;;;;;;;14.55;10.60;;;26.30;99.90;;;;;;4969032;28;20058;-69
2021/06/11 12:24:35;;;;;;;12.55;9.73;;;26.10;99.90;;;;;;4969143;28;20543;-70
2021/06/11 12:27:01;;;;;;;15.93;10.95;;;26.10;99.90;;;;;;4969049;28;20034;-69
2021/06/11 12:29:27;;;;;;;15.77;11.05;;;26.10;99.90;;;;;;4961804;28;20057;-68
2021/06/11 12:31:52;;;;;;;16.52;10.93;;;26.20;99.90;;;;;;4975398;28;20035;-69
2021/06/11 12:34:19;;;;;;;16.45;11.38;;;26.20;99.90;;;;;;4969528;28;20030;-68
2021/06/11 12:36:45;;;;;;;15.13;10.73;;;26.20;99.90;;;;;;4968277;28;20058;-68